Dyer, Arkansas
Current Conditions -  °F | °C
As of 6:17 AM on Saturday 25 Oct 2014 (Local Time) from KFSM Reporting Station
Haze Haze  
Wind Chill: 57°   Ceiling: Unl
Heat Index: 57°   Visibility: 3mi
Dew Point: 55°   Wind: 0mph
Humidity: 93%   Direction: NA
Pressure: 30.1"   Gusts: NA
Location:  35.49°N, 94.14°W
Report Text: KFSM 251117Z 00000KT 3SM R25/1800V3000FT BR CLR 14/13 A3010 RMK AO2 T01390128
Loading
Personal Weather Stations






























Interactive Weather Map
Tropical Storm Tracking
New forecast layout! Learn more

10-Day Weather Forecast

Advertisements
Track Severe Weather on mobile